Axtell, UT

8:48 AM MST on March 03, 2015 (GMT -0700)
Redmond Town | Change Station
CLOSE
Current Station
Personal Weather Station
Location: Redmond, UT
Elevation: 5115 ft
Nearby Weather Stations

Elev 5115 ft 39.01 °N, 111.86 °W | Updated 1 second ago

Partly Cloudy
Partly Cloudy
32.4 °F
Feels Like 32 °F
N
1.6
Wind Variable Wind from NNE
Gusts 3.4 mph

Today
High -- | Low -- °F
--% Chance of Precip.
Yesterday
High -- | Low -- °F
Precip. -- in
6:56 AM 6:21 PM
Waxing Gibbous, 96% visible
Pressure 29.89 in
Visibility 10.0 miles
Clouds Clear
Windchill 32 °F
Dew Point 28 °F
Humidity 85%
Rainfall 0.00 in
Snow Depth Not available.
UV 1 out of 12
Pollen .60 out of 12
Air Quality Not available.
Flu Activity Not available.
METAR KPUC 031453Z AUTO 03006KT 10SM CLR M04/M07 A2978 RMK AO2 SLP120 T10391067 56004

More Conditions Fewer Conditions

Pressure 29.89 in
Visibility 10.0 miles
Clouds Clear
Windchill 32 °F
Dew Point 28 °F
Humidity 85%
Rainfall 0.00 in
Snow Depth Not available.
UV 1 out of 12
Pollen .60 out of 12
Air Quality Not available.
Flu Activity Not available.
METAR KPUC 031453Z AUTO 03006KT 10SM CLR M04/M07 A2978 RMK AO2 SLP120 T10391067 56004

More Conditions Fewer Conditions

10-Day Weather Forecast

Almanac

Astronomy

Mar. 03, 2015 Rise Set
Actual Time
Civil Twilight
Nautical Twilight
Astronomical Twilight
Moon
Length of Visible Light
Length of Day
Tomorrow will be .
, % of the Moon is Illuminated

Today's Extremes

State Highs State Lows

Community

WunderPhotos

Upload Photos

1,802,149 photos uploaded!

WunderBlogs® & News

Nearby

Air Quality

  Air Quality AQ Index Pollutant
Not available.

Snow Depth

Station Depth Elevation

Earthquake Activity

City Distance Mag. Time & Date
Minimum magnitude displayed is 2.5.

Coastal Water Temperatures

Place Temperature

Nearby Weather Stations